Freeman, MO (64746)

12:24 PM CDT on August 04, 2015 (GMT -0500)
Cass County, Freeman | | Change Station
CLOSE
Current Station
Personal Weather Station
Location: Freeman, MO
Elevation: 961 ft
Nearby Weather Stations

Elev 961 ft 38.59 °N, 94.52 °W | Updated 6 seconds ago

Mostly Cloudy
Mostly Cloudy
87.3 °F
Feels Like 94 °F
N
0.0
Wind Variable Wind from SSE
Gusts 0.0 mph

Today
High -- | Low -- °F
--% Chance of Precip.
Yesterday
High -- | Low -- °F
Precip. -- in
6:22 AM 8:25 PM
Waning Gibbous, 76% visible
Pressure 29.96 in
Visibility 10.0 miles
Clouds Overcast 9000 ft
Heat Index 94 °F
Dew Point 72 °F
Humidity 61%
Rainfall 0.00 in
Snow Depth Not available.
UV 3 out of 12
Pollen 6.50 out of 12
Air Quality Not available.
Flu Activity Not available.
METAR KOJC 041653Z 20005KT 10SM OVC090 29/19 A3000 RMK AO2 SLP145 T02890194

More Conditions Fewer Conditions

Pressure 29.96 in
Visibility 10.0 miles
Clouds Overcast 9000 ft
Heat Index 94 °F
Dew Point 72 °F
Humidity 61%
Rainfall 0.00 in
Snow Depth Not available.
UV 3 out of 12
Pollen 6.50 out of 12
Air Quality Not available.
Flu Activity Not available.
METAR KOJC 041653Z 20005KT 10SM OVC090 29/19 A3000 RMK AO2 SLP145 T02890194

More Conditions Fewer Conditions

10-Day Weather Forecast

×

Almanac

Astronomy

Aug. 04, 2015 Rise Set
Actual Time
Civil Twilight
Nautical Twilight
Astronomical Twilight
Moon
Length of Visible Light
Length of Day
Tomorrow will be .
, % of the Moon is Illuminated

Today's Extremes

State Highs State Lows

Community

WunderPhotos

Upload Photos

1,843,927 photos uploaded!

WunderBlogs® & News

Nearby

Air Quality

  Air Quality AQ Index Pollutant
Not available.

Snow Depth

Station Depth Elevation

Earthquake Activity

City Distance Mag. Time & Date
Minimum magnitude displayed is 2.5.

Coastal Water Temperatures

Place Temperature

Stations

Nearby Weather Stations

Station Location Temp. Windchill Dew Point Humidity Wind Precip. Elev Updated Type